EDXW Airport Information

Runway Information
Runway 06 Length 5564 ft width 148 ft
Elevation 27 ft Threshold ft Heading 60
Runway 24 Length 5564 ft Width 148 ft
Elevation 51 ft Threshold ft Heading 240
Runway 14 Length 6955 ft width 148 ft
Elevation 32 ft Threshold ft Heading 144
Runway 32 Length 6955 ft Width 148 ft
Elevation 31 ft Threshold ft Heading 324
Airport Frequencies
Type INFO Name BREMEN INF Frequency 125.1 MHZ
Type RDR Name BREMEN RAD Frequency 136.225 MHZ
Type TWR Name SYLT TWR Frequency 119.75 MHZ
Airport Navaids
Type NDB Name Sylt Frequency 387 KHZ
Type DME Name Westerland Frequency 111500 KHZ
Airport Weather Information & NOTAM
ADDS - METARS form results

(0720 UTC 07 July 2022)
Data provider http://aviationweather.gov/metar/data/
 
METAR text: EDXW 070650Z AUTO 32019KT 9999 // BKN017/// BKN023/// OVC026/// 16/13 Q1014
Conditions at: EDXW (WESTERLAND/SYLT , DE) observed 0650 UTC 07 July 2022
Temperature: 16.0°C (61°F)
Dewpoint: 13.0°C (55°F) [RH = 82%]
Pressure (altimeter): 29.94 inches Hg (1014.0 mb)
Winds: from the NW (320 degrees) at 22 MPH (19 knots; 9.8 m/s)
Visibility: 6 or more miles (10+ km)
Ceiling: 1700 feet AGL
Clouds: broken clouds at 1700 feet AGL
broken clouds at 2300 feet AGL
overcast cloud deck at 2600 feet AGL
Weather: no significant weather observed at this time